Time;durP1;ratioP1;P1;durP2;ratioP2;P2;SDS_P1;SDS_P2;PMS_P1;PMS_P2;Temp;Humidity;BMP_temperature;BMP_pressure;BME280_temperature;BME280_humidity;BME280_pressure;Samples;Min_cycle;Max_cycle;Signal;HPM_P1;HPM_P2
2022/12/04 00:01:26;;;;;;;55.83;30.47;;;0.10;99.90;;;;;;5093095;28;20202;-79
2022/12/04 00:03:56;;;;;;;63.57;30.10;;;0.10;99.90;;;;;;5091809;28;20222;-78
2022/12/04 00:06:27;;;;;;;54.43;29.40;;;0.20;99.90;;;;;;5091996;28;20472;-79
2022/12/04 00:08:55;;;;;;;80.37;28.93;;;0.20;99.90;;;;;;5092670;28;20927;-76
2022/12/04 00:11:25;;;;;;;51.97;28.33;;;0.10;99.90;;;;;;5077875;28;20474;-78
2022/12/04 00:13:54;;;;;;;63.13;29.47;;;0.10;99.90;;;;;;5089341;28;20894;-79
2022/12/04 00:16:33;;;;;;;64.57;29.90;;;0.20;99.90;;;;;;5091804;28;20191;-78
2022/12/04 00:19:01;;;;;;;82.20;28.73;;;0.10;99.90;;;;;;5084364;28;20460;-79
2022/12/04 00:21:31;;;;;;;61.43;28.73;;;0.20;99.90;;;;;;5091513;28;20203;-76
2022/12/04 00:23:59;;;;;;;50.03;27.93;;;0.20;99.90;;;;;;5091740;28;20495;-78
2022/12/04 00:26:30;;;;;;;49.97;28.20;;;0.20;99.90;;;;;;5091452;28;20437;-79
2022/12/04 00:28:59;;;;;;;51.20;27.13;;;0.20;99.90;;;;;;5092044;28;20452;-78
2022/12/04 00:31:29;;;;;;;49.57;28.87;;;0.20;99.90;;;;;;5091241;28;21006;-78
2022/12/04 00:33:58;;;;;;;55.57;26.33;;;0.30;99.90;;;;;;5091467;28;20191;-78
2022/12/04 00:36:28;;;;;;;45.73;27.07;;;0.30;99.90;;;;;;5092272;28;20222;-76
2022/12/04 00:38:59;;;;;;;46.27;27.23;;;0.20;99.90;;;;;;5091835;28;20699;-78
2022/12/04 00:41:28;;;;;;;55.47;25.23;;;0.30;99.90;;;;;;5091113;28;20234;-76
2022/12/04 00:43:58;;;;;;;56.73;25.43;;;0.30;99.90;;;;;;5091725;28;20739;-76
2022/12/04 00:46:27;;;;;;;57.00;27.70;;;0.20;99.90;;;;;;5091592;28;20563;-74
2022/12/04 00:48:56;;;;;;;49.67;26.83;;;0.20;99.90;;;;;;5091983;28;20260;-74
2022/12/04 00:51:25;;;;;;;45.30;25.93;;;0.30;99.90;;;;;;5085780;28;21002;-75
2022/12/04 00:53:54;;;;;;;46.33;25.80;;;0.30;99.90;;;;;;5102019;28;20456;-79
2022/12/04 00:56:27;;;;;;;43.23;25.73;;;0.30;99.90;;;;;;5080385;28;20216;-79
2022/12/04 00:58:56;;;;;;;44.33;25.53;;;0.30;99.90;;;;;;5089259;28;20203;-77
2022/12/04 01:01:26;;;;;;;54.57;27.73;;;0.30;99.90;;;;;;5091701;28;20211;-79
2022/12/04 01:03:57;;;;;;;55.57;27.10;;;0.40;99.90;;;;;;5091137;28;20242;-80
2022/12/04 01:06:27;;;;;;;64.10;28.53;;;0.30;99.90;;;;;;5090989;28;20340;-79
2022/12/04 01:08:57;;;;;;;47.77;26.10;;;0.30;99.90;;;;;;5091467;28;20475;-79
2022/12/04 01:11:28;;;;;;;51.30;26.90;;;0.40;99.90;;;;;;5091689;28;20237;-78
2022/12/04 01:13:57;;;;;;;49.27;25.53;;;0.50;99.90;;;;;;5091344;28;20207;-79
2022/12/04 01:16:28;;;;;;;46.67;25.47;;;0.40;99.90;;;;;;5090820;28;20516;-76
2022/12/04 01:18:56;;;;;;;53.23;26.20;;;0.40;99.90;;;;;;5091577;28;20429;-77
2022/12/04 01:21:24;;;;;;;46.33;26.63;;;0.50;99.90;;;;;;5091756;28;20468;-76
2022/12/04 01:23:53;;;;;;;50.73;25.07;;;0.50;99.90;;;;;;5088705;28;20493;-75
2022/12/04 01:26:21;;;;;;;53.63;26.03;;;0.50;99.90;;;;;;5071450;28;20199;-74
2022/12/04 01:28:50;;;;;;;46.00;25.23;;;0.50;99.90;;;;;;5071929;28;20219;-74
2022/12/04 01:31:20;;;;;;;51.10;25.53;;;0.50;99.90;;;;;;5079029;28;20230;-74
2022/12/04 01:33:49;;;;;;;48.13;24.77;;;0.50;99.90;;;;;;5091998;28;20234;-76
2022/12/04 01:36:19;;;;;;;51.40;25.87;;;0.50;99.90;;;;;;5092732;28;20611;-76
2022/12/04 01:38:48;;;;;;;49.93;25.50;;;0.50;99.90;;;;;;5095576;28;20285;-75
2022/12/04 01:41:19;;;;;;;48.30;26.30;;;0.50;99.90;;;;;;5090363;28;20223;-78
2022/12/04 01:44:11;;;;;;;54.37;26.50;;;0.50;99.90;;;;;;5094830;28;20510;-77
2022/12/04 01:46:39;;;;;;;49.17;25.90;;;0.50;99.90;;;;;;5095743;28;20199;-77
2022/12/04 01:49:11;;;;;;;44.93;24.50;;;0.50;99.90;;;;;;5081933;28;20218;-77
2022/12/04 01:51:42;;;;;;;49.67;26.00;;;0.60;99.90;;;;;;5095929;28;20653;-80
2022/12/04 01:54:15;;;;;;;49.00;26.07;;;0.60;99.90;;;;;;5094520;28;20453;-79
2022/12/04 01:56:46;;;;;;;54.03;26.20;;;0.60;99.90;;;;;;5091755;28;20211;-79
2022/12/04 01:59:18;;;;;;;45.17;25.10;;;0.60;99.90;;;;;;5074647;28;20299;-78
2022/12/04 02:01:57;;;;;;;52.83;27.10;;;0.60;99.90;;;;;;5074755;28;20278;-81
2022/12/04 02:04:25;;;;;;;64.00;26.53;;;0.60;99.90;;;;;;5074494;28;20509;-81
2022/12/04 02:06:53;;;;;;;60.47;27.17;;;0.60;99.90;;;;;;5080177;28;20208;-79
2022/12/04 02:09:22;;;;;;;54.27;27.10;;;0.60;99.90;;;;;;5074309;28;20222;-79
2022/12/04 02:12:03;;;;;;;55.00;27.37;;;0.60;99.90;;;;;;5073834;28;20188;-78
2022/12/04 02:14:42;;;;;;;51.77;27.40;;;0.60;99.90;;;;;;5075012;28;20302;-74
2022/12/04 02:17:20;;;;;;;59.90;27.33;;;0.50;99.90;;;;;;5078019;28;20563;-79
2022/12/04 02:20:12;;;;;;;57.47;27.63;;;0.50;99.90;;;;;;5094727;28;20298;-81
2022/12/04 02:22:59;;;;;;;49.80;26.53;;;0.60;99.90;;;;;;5093556;28;20660;-79
2022/12/04 02:25:35;;;;;;;52.17;28.17;;;0.60;99.90;;;;;;5092934;28;20530;-79
2022/12/04 02:28:09;;;;;;;49.03;26.73;;;0.60;99.90;;;;;;5094515;28;20183;-78
2022/12/04 02:30:41;;;;;;;53.50;27.27;;;0.60;99.90;;;;;;5095185;28;20444;-80
2022/12/04 02:33:17;;;;;;;57.17;27.23;;;0.60;99.90;;;;;;5091938;28;20218;-78
2022/12/04 02:35:48;;;;;;;53.47;27.23;;;0.60;99.90;;;;;;5074013;28;20653;-79
2022/12/04 02:38:22;;;;;;;54.70;28.33;;;0.60;99.90;;;;;;5074057;28;20202;-78
2022/12/04 02:40:56;;;;;;;50.40;27.97;;;0.60;99.90;;;;;;5073412;28;20465;-79
2022/12/04 02:43:29;;;;;;;53.63;28.10;;;0.70;99.90;;;;;;5072966;28;20207;-79
2022/12/04 02:46:01;;;;;;;55.73;28.37;;;0.70;99.90;;;;;;5094137;28;20211;-77
2022/12/04 02:48:33;;;;;;;52.37;28.37;;;0.70;99.90;;;;;;5092840;28;20286;-78
2022/12/04 02:51:04;;;;;;;43.37;26.73;;;0.80;99.90;;;;;;5093691;28;20211;-78
2022/12/04 02:53:35;;;;;;;53.47;28.50;;;0.80;99.90;;;;;;5092920;28;20225;-78
2022/12/04 02:56:09;;;;;;;54.27;27.57;;;0.80;99.90;;;;;;5093756;28;20192;-77
2022/12/04 02:58:44;;;;;;;54.27;26.57;;;0.80;99.90;;;;;;5093335;28;20198;-76
2022/12/04 03:01:22;;;;;;;45.67;26.67;;;0.80;99.90;;;;;;5078323;28;20257;-78
2022/12/04 03:03:55;;;;;;;49.77;27.40;;;0.80;99.90;;;;;;5089917;28;20203;-77
2022/12/04 03:06:24;;;;;;;51.30;27.47;;;0.90;99.90;;;;;;5093990;28;20241;-79
2022/12/04 03:08:59;;;;;;;48.67;26.87;;;1.00;99.90;;;;;;5093418;28;20763;-79
2022/12/04 03:11:31;;;;;;;51.93;27.63;;;0.80;99.90;;;;;;5093134;28;20573;-79
2022/12/04 03:14:06;;;;;;;56.93;27.20;;;0.90;99.90;;;;;;5092445;28;20219;-80
2022/12/04 03:16:38;;;;;;;60.00;27.63;;;0.90;99.90;;;;;;5093550;28;20190;-77
2022/12/04 03:19:10;;;;;;;55.37;27.30;;;1.00;99.90;;;;;;5093394;28;20191;-79
2022/12/04 03:21:46;;;;;;;50.80;27.73;;;1.00;99.90;;;;;;5092305;28;20206;-80
2022/12/04 03:24:19;;;;;;;45.77;26.47;;;0.90;99.90;;;;;;5093868;28;20433;-80
2022/12/04 03:26:52;;;;;;;57.60;28.43;;;0.90;99.90;;;;;;5093314;28;20221;-77
2022/12/04 03:29:23;;;;;;;47.37;27.30;;;0.90;99.90;;;;;;5093729;28;20211;-78
2022/12/04 03:31:57;;;;;;;48.43;27.47;;;0.80;99.90;;;;;;5091875;28;20226;-79
2022/12/04 03:34:28;;;;;;;50.90;28.13;;;0.90;99.90;;;;;;5093318;28;20422;-79
2022/12/04 03:36:59;;;;;;;60.73;29.37;;;0.90;99.90;;;;;;5093202;28;20690;-79
2022/12/04 03:39:34;;;;;;;49.13;27.47;;;1.00;99.90;;;;;;5092169;28;20449;-78
2022/12/04 03:42:10;;;;;;;63.40;29.13;;;1.00;99.90;;;;;;5092812;28;20557;-79
2022/12/04 03:44:43;;;;;;;58.60;28.77;;;1.00;99.90;;;;;;5092446;28;20191;-77
2022/12/04 03:47:16;;;;;;;79.47;29.20;;;0.90;99.90;;;;;;5092014;28;20195;-78
2022/12/04 03:49:55;;;;;;;60.47;28.47;;;1.00;99.90;;;;;;5092606;28;20207;-79
2022/12/04 03:52:28;;;;;;;54.67;28.83;;;1.00;99.90;;;;;;5092462;28;20237;-79
2022/12/04 03:55:01;;;;;;;55.77;28.20;;;1.00;99.90;;;;;;5092995;28;20195;-79
2022/12/04 03:57:34;;;;;;;63.00;30.33;;;1.00;99.90;;;;;;5089214;28;20683;-79
2022/12/04 04:00:07;;;;;;;74.87;29.73;;;1.00;99.90;;;;;;5073066;28;20450;-80
2022/12/04 04:02:41;;;;;;;56.33;28.90;;;1.00;99.90;;;;;;5074706;28;20207;-78
2022/12/04 04:05:12;;;;;;;55.97;28.90;;;1.00;99.90;;;;;;5092332;28;20676;-79
2022/12/04 04:07:45;;;;;;;57.43;28.70;;;1.10;99.90;;;;;;5091261;28;20203;-80
2022/12/04 04:10:15;;;;;;;56.40;29.50;;;1.10;99.90;;;;;;5093156;28;20564;-76
2022/12/04 04:24:12;;;;;;;61.53;29.50;;;1.10;99.90;;;;;;5092111;28;20242;-75
2022/12/04 04:24:16;;;;;;;49.37;26.77;;;1.00;99.90;;;;;;5091936;28;20661;-79
2022/12/04 04:26:48;;;;;;;69.07;28.87;;;1.10;99.90;;;;;;5091022;28;20215;-79
2022/12/04 04:29:16;;;;;;;62.90;29.47;;;1.10;99.90;;;;;;5092349;28;20556;-77
2022/12/04 04:31:51;;;;;;;63.57;28.43;;;1.20;99.90;;;;;;5091503;28;20233;-79
2022/12/04 04:34:24;;;;;;;70.37;27.53;;;1.20;99.90;;;;;;5090553;28;20232;-76
2022/12/04 04:36:57;;;;;;;57.20;27.57;;;1.10;99.90;;;;;;5089621;28;20206;-78
2022/12/04 04:39:33;;;;;;;57.73;27.23;;;1.10;99.90;;;;;;5088976;28;20214;-77
2022/12/04 04:42:07;;;;;;;58.67;27.07;;;1.00;99.90;;;;;;5089997;28;20652;-80
2022/12/04 04:44:48;;;;;;;63.47;27.90;;;1.00;99.90;;;;;;5071475;28;20207;-79
2022/12/04 04:47:24;;;;;;;58.83;27.13;;;1.00;99.90;;;;;;5072099;28;20231;-77
2022/12/04 04:49:52;;;;;;;77.00;28.30;;;1.10;99.90;;;;;;5071792;28;20557;-79
2022/12/04 04:52:23;;;;;;;60.23;29.17;;;1.00;99.90;;;;;;5083073;28;20234;-78
2022/12/04 04:54:51;;;;;;;71.07;29.23;;;1.00;99.90;;;;;;5087282;28;20213;-78
2022/12/04 04:57:27;;;;;;;74.20;27.57;;;1.00;99.90;;;;;;5092764;28;20205;-79
2022/12/04 04:59:55;;;;;;;48.60;27.73;;;1.00;99.90;;;;;;5092109;28;20231;-76
2022/12/04 05:02:27;;;;;;;60.90;27.87;;;0.90;99.90;;;;;;5091581;28;20250;-79
2022/12/04 05:04:56;;;;;;;51.70;27.00;;;1.00;99.90;;;;;;5075731;28;20262;-77
2022/12/04 05:07:24;;;;;;;48.00;26.30;;;0.90;99.90;;;;;;5080430;28;20223;-77
2022/12/04 05:09:52;;;;;;;49.47;26.73;;;1.00;99.90;;;;;;5085232;28;20646;-77
2022/12/04 05:12:21;;;;;;;47.60;26.37;;;1.00;99.90;;;;;;5074447;28;20211;-79
2022/12/04 05:14:49;;;;;;;53.50;26.63;;;1.00;99.90;;;;;;5076260;28;20218;-79
2022/12/04 05:17:17;;;;;;;48.80;25.80;;;1.00;99.90;;;;;;5094990;28;20211;-78
2022/12/04 05:19:53;;;;;;;47.83;26.27;;;0.90;99.90;;;;;;5096155;28;20253;-74
2022/12/04 05:22:24;;;;;;;73.53;25.87;;;0.90;99.90;;;;;;5095863;28;20628;-74
2022/12/04 05:24:52;;;;;;;54.67;25.30;;;0.90;99.90;;;;;;5096433;28;20626;-77
2022/12/04 05:27:21;;;;;;;51.17;25.70;;;0.90;99.90;;;;;;5099038;28;20604;-76
2022/12/04 05:29:51;;;;;;;80.57;27.00;;;0.90;99.90;;;;;;5100432;28;20206;-77
2022/12/04 05:32:20;;;;;;;61.53;25.50;;;0.90;99.90;;;;;;5095535;28;20214;-74
2022/12/04 05:34:49;;;;;;;67.83;26.10;;;0.90;99.90;;;;;;5090979;28;20448;-78
2022/12/04 05:37:18;;;;;;;65.60;25.30;;;0.90;99.90;;;;;;5077736;28;20203;-80
2022/12/04 05:39:46;;;;;;;64.90;24.83;;;0.90;99.90;;;;;;5075145;28;20693;-80
2022/12/04 05:42:15;;;;;;;48.77;26.17;;;0.90;99.90;;;;;;5093025;28;20202;-77
2022/12/04 05:44:43;;;;;;;51.27;25.90;;;0.90;99.90;;;;;;5109240;28;20524;-76
2022/12/04 05:47:11;;;;;;;59.27;27.13;;;0.90;99.90;;;;;;5110869;28;20742;-78
2022/12/04 05:49:39;;;;;;;52.40;25.70;;;0.90;99.90;;;;;;5105846;28;20211;-76
2022/12/04 05:52:09;;;;;;;56.00;26.10;;;1.00;99.90;;;;;;5102134;28;20207;-76
2022/12/04 05:54:37;;;;;;;76.17;26.77;;;1.10;99.90;;;;;;5116192;28;20583;-77
2022/12/04 05:57:05;;;;;;;83.50;27.60;;;1.00;99.90;;;;;;5113320;28;20211;-79
2022/12/04 05:59:33;;;;;;;84.47;27.83;;;1.00;99.90;;;;;;5099941;28;20271;-79
2022/12/04 06:02:01;;;;;;;51.13;26.80;;;0.90;99.90;;;;;;5102468;28;20218;-75
2022/12/04 06:04:30;;;;;;;66.13;27.47;;;1.00;99.90;;;;;;5100892;28;20234;-79
2022/12/04 06:06:58;;;;;;;77.73;28.73;;;1.00;99.90;;;;;;5096286;28;20237;-77
2022/12/04 06:09:27;;;;;;;45.47;25.20;;;1.10;99.90;;;;;;5096839;28;20221;-77
2022/12/04 06:11:58;;;;;;;46.43;25.43;;;1.00;99.90;;;;;;5097415;28;20214;-75
2022/12/04 06:14:26;;;;;;;42.93;25.70;;;1.00;99.90;;;;;;5098209;28;20218;-76
2022/12/04 06:16:55;;;;;;;83.07;27.20;;;1.10;99.90;;;;;;5110285;28;20271;-77
2022/12/04 06:19:24;;;;;;;69.73;26.50;;;1.00;99.90;;;;;;5098287;28;20242;-75
2022/12/04 06:21:53;;;;;;;53.37;27.20;;;1.00;99.90;;;;;;5095732;28;20206;-76
2022/12/04 06:24:23;;;;;;;56.83;27.67;;;1.00;99.90;;;;;;5096255;28;20294;-76
2022/12/04 06:26:56;;;;;;;65.03;30.10;;;1.10;99.90;;;;;;5100524;28;20232;-75
2022/12/04 06:29:44;;;;;;;58.03;26.60;;;1.10;99.90;;;;;;5097669;28;20206;-75
2022/12/04 06:32:12;;;;;;;69.33;28.20;;;1.10;99.90;;;;;;5099468;28;20223;-74
2022/12/04 06:34:50;;;;;;;73.07;27.73;;;1.00;99.90;;;;;;5101809;28;20290;-75
2022/12/04 06:37:18;;;;;;;57.03;26.17;;;1.00;99.90;;;;;;5099386;28;20253;-72
2022/12/04 06:39:47;;;;;;;74.07;28.40;;;1.00;99.90;;;;;;5098992;28;20515;-73
2022/12/04 06:42:16;;;;;;;46.57;26.50;;;1.00;99.90;;;;;;5099596;28;20257;-74
2022/12/04 06:44:45;;;;;;;39.50;24.30;;;1.10;99.90;;;;;;5098011;28;20206;-75
2022/12/04 06:47:13;;;;;;;39.50;24.50;;;1.10;99.90;;;;;;5097967;28;20223;-77
2022/12/04 06:49:41;;;;;;;34.53;22.93;;;1.10;99.90;;;;;;5100040;28;20207;-74
2022/12/04 06:52:09;;;;;;;37.67;23.90;;;1.00;99.90;;;;;;5098342;28;20297;-73
2022/12/04 06:54:37;;;;;;;47.13;24.20;;;1.00;99.90;;;;;;5096686;28;20661;-72
2022/12/04 06:57:05;;;;;;;46.87;24.37;;;1.00;99.90;;;;;;5098476;28;20206;-72
2022/12/04 06:59:36;;;;;;;53.50;25.80;;;1.00;99.90;;;;;;5097520;28;20206;-75
2022/12/04 07:02:04;;;;;;;48.20;25.90;;;1.00;99.90;;;;;;5096859;28;20207;-73
2022/12/04 07:04:32;;;;;;;57.60;25.67;;;1.10;99.90;;;;;;5097384;28;20649;-73
2022/12/04 07:07:00;;;;;;;53.67;25.93;;;1.10;99.90;;;;;;5093902;28;20284;-73
2022/12/04 07:09:28;;;;;;;49.13;26.47;;;1.10;99.90;;;;;;5089879;28;20206;-76
2022/12/04 07:11:56;;;;;;;54.83;27.07;;;1.20;99.90;;;;;;5085603;28;20211;-76
2022/12/04 07:14:24;;;;;;;56.90;27.20;;;1.20;99.90;;;;;;5099243;28;20203;-73
2022/12/04 07:16:54;;;;;;;60.83;27.57;;;1.20;99.90;;;;;;5099068;28;20207;-76
2022/12/04 07:19:22;;;;;;;80.10;27.93;;;1.20;99.90;;;;;;5099384;28;20234;-74
2022/12/04 07:21:50;;;;;;;43.77;25.67;;;1.20;99.90;;;;;;5095710;28;20400;-74
2022/12/04 07:24:18;;;;;;;53.13;27.07;;;1.20;99.90;;;;;;5097569;28;20203;-74
2022/12/04 07:26:47;;;;;;;58.00;27.20;;;1.30;99.90;;;;;;5097844;28;20209;-75
2022/12/04 07:29:16;;;;;;;44.67;26.10;;;1.30;99.90;;;;;;5099814;28;20206;-74
2022/12/04 07:31:44;;;;;;;45.67;24.50;;;1.30;99.90;;;;;;5097766;28;20249;-76
2022/12/04 07:34:13;;;;;;;55.80;25.47;;;1.30;99.90;;;;;;5097755;28;20210;-75
2022/12/04 07:36:41;;;;;;;43.43;26.17;;;1.40;99.90;;;;;;5100983;28;20612;-76
2022/12/04 07:39:10;;;;;;;47.07;26.07;;;1.30;99.90;;;;;;5098334;28;20278;-73
2022/12/04 07:41:38;;;;;;;36.20;24.53;;;2.70;99.90;;;;;;5080456;28;20279;-74
2022/12/04 07:44:06;;;;;;;35.43;23.20;;;2.60;99.90;;;;;;5088039;28;20217;-75
2022/12/04 07:46:34;;;;;;;36.13;22.13;;;2.30;99.90;;;;;;5092280;28;20214;-75
2022/12/04 07:49:03;;;;;;;37.40;21.47;;;2.00;99.90;;;;;;5100148;28;20253;-75
2022/12/04 07:51:32;;;;;;;31.97;21.03;;;1.80;99.90;;;;;;5085860;28;20215;-75
2022/12/04 07:54:00;;;;;;;35.57;21.80;;;1.70;99.90;;;;;;5098082;28;20230;-75
2022/12/04 07:56:31;;;;;;;38.97;26.73;;;1.60;99.90;;;;;;5094464;28;20217;-75
2022/12/04 07:59:00;;;;;;;33.57;23.07;;;1.60;99.90;;;;;;5093862;28;20203;-73
2022/12/04 08:01:28;;;;;;;34.30;22.40;;;1.60;99.90;;;;;;5094560;28;20213;-74
2022/12/04 08:03:58;;;;;;;30.10;21.43;;;1.70;99.90;;;;;;5096488;28;20211;-76
2022/12/04 08:06:28;;;;;;;31.33;21.17;;;1.70;99.90;;;;;;5083278;28;20269;-76
2022/12/04 08:08:58;;;;;;;32.57;21.90;;;1.70;99.90;;;;;;5089730;28;20308;-77
2022/12/04 08:11:32;;;;;;;34.00;22.13;;;1.70;99.90;;;;;;5103648;28;20285;-76
2022/12/04 08:14:02;;;;;;;29.43;21.00;;;1.70;99.90;;;;;;5090548;28;20207;-76
2022/12/04 08:16:32;;;;;;;30.63;22.03;;;1.70;99.90;;;;;;5090455;28;20211;-75
2022/12/04 08:19:02;;;;;;;33.17;21.00;;;1.70;99.90;;;;;;5091455;28;20195;-74
2022/12/04 08:21:31;;;;;;;32.63;22.13;;;1.70;99.90;;;;;;5089164;28;20703;-73
2022/12/04 08:24:01;;;;;;;32.60;21.37;;;1.80;99.90;;;;;;5088262;28;20207;-74
2022/12/04 08:26:32;;;;;;;36.07;22.93;;;1.80;99.90;;;;;;5087126;28;20207;-75
2022/12/04 08:29:01;;;;;;;35.63;22.63;;;1.80;99.90;;;;;;5094409;28;20238;-75
2022/12/04 08:31:31;;;;;;;33.40;23.23;;;1.80;99.90;;;;;;5095686;28;20247;-73
2022/12/04 08:34:02;;;;;;;35.80;23.17;;;1.90;99.90;;;;;;5095849;28;20209;-76
2022/12/04 08:36:31;;;;;;;41.13;22.87;;;2.00;99.90;;;;;;5097141;28;20206;-74
2022/12/04 08:39:00;;;;;;;37.30;22.13;;;2.00;99.90;;;;;;5094782;28;20394;-75
2022/12/04 08:41:29;;;;;;;42.73;23.33;;;2.00;99.90;;;;;;5090730;28;20242;-76
2022/12/04 08:43:57;;;;;;;35.43;22.53;;;1.90;99.90;;;;;;5092429;28;20214;-74
2022/12/04 08:46:28;;;;;;;42.37;24.80;;;2.00;99.90;;;;;;5094256;28;20205;-76
2022/12/04 08:48:57;;;;;;;41.47;24.03;;;2.10;99.90;;;;;;5096435;28;20234;-75
2022/12/04 08:51:27;;;;;;;35.77;22.43;;;2.10;99.90;;;;;;5096977;28;20249;-74
2022/12/04 08:53:56;;;;;;;41.77;22.80;;;2.20;99.90;;;;;;5097531;28;20210;-74
2022/12/04 08:56:27;;;;;;;36.43;22.63;;;2.20;99.90;;;;;;5094002;28;20218;-74
2022/12/04 08:58:56;;;;;;;35.63;22.87;;;2.20;99.90;;;;;;5085067;28;20671;-75
2022/12/04 09:01:25;;;;;;;38.30;23.80;;;2.20;99.90;;;;;;5095973;28;20207;-77
2022/12/04 09:03:53;;;;;;;36.33;23.83;;;2.20;99.90;;;;;;5095897;28;20203;-74
2022/12/04 09:06:22;;;;;;;38.07;22.60;;;2.20;99.90;;;;;;5096438;28;20217;-77
2022/12/04 09:08:52;;;;;;;41.20;22.80;;;2.20;99.90;;;;;;5095556;28;20226;-76
2022/12/04 09:11:22;;;;;;;37.83;23.40;;;2.30;99.90;;;;;;5096127;28;20210;-77
2022/12/04 09:13:52;;;;;;;34.27;21.40;;;2.30;99.90;;;;;;5099855;28;20599;-80
2022/12/04 09:16:22;;;;;;;32.33;22.03;;;2.30;99.90;;;;;;5095465;28;20206;-77
2022/12/04 09:18:51;;;;;;;29.47;20.57;;;2.40;99.90;;;;;;5096803;28;20202;-74
2022/12/04 09:21:20;;;;;;;33.20;22.00;;;2.30;99.90;;;;;;5101481;28;20676;-77
2022/12/04 09:23:48;;;;;;;31.40;20.80;;;2.30;99.90;;;;;;5096338;28;20217;-75
2022/12/04 09:26:21;;;;;;;31.93;21.67;;;2.30;99.90;;;;;;5097717;28;20207;-76
2022/12/04 09:28:51;;;;;;;33.13;20.67;;;2.30;99.90;;;;;;5098305;28;20215;-77
2022/12/04 09:31:21;;;;;;;32.43;22.10;;;2.30;99.90;;;;;;5090827;28;20222;-77
2022/12/04 09:33:49;;;;;;;31.33;21.27;;;2.30;99.90;;;;;;5092618;28;20210;-79
2022/12/04 09:36:17;;;;;;;29.90;20.60;;;2.40;99.90;;;;;;5095787;28;20301;-77
2022/12/04 09:38:48;;;;;;;29.67;20.03;;;2.50;99.90;;;;;;5093273;28;20700;-77
2022/12/04 09:41:53;;;;;;;28.70;20.23;;;2.60;99.90;;;;;;5093127;28;20213;-76
2022/12/04 09:44:26;;;;;;;25.27;18.93;;;2.80;99.90;;;;;;5065442;28;20684;-77
2022/12/04 09:46:59;;;;;;;24.57;18.93;;;2.80;99.90;;;;;;5092551;28;20229;-79
2022/12/04 09:49:34;;;;;;;26.73;19.30;;;2.80;99.90;;;;;;5090121;28;20693;-77
2022/12/04 09:52:07;;;;;;;21.63;16.67;;;2.90;99.90;;;;;;5094566;28;20631;-79
2022/12/04 09:54:42;;;;;;;25.07;18.30;;;2.80;99.90;;;;;;5089825;28;20570;-76
2022/12/04 09:57:16;;;;;;;22.80;17.80;;;2.80;99.90;;;;;;5095383;28;20194;-80
2022/12/04 09:59:46;;;;;;;29.17;19.33;;;2.80;99.90;;;;;;5093419;28;20236;-78
2022/12/04 10:02:32;;;;;;;27.57;20.23;;;2.70;99.90;;;;;;5088220;28;20227;-76
2022/12/04 10:05:01;;;;;;;28.63;20.27;;;2.70;99.90;;;;;;5092146;28;20228;-78
2022/12/04 10:07:34;;;;;;;31.60;22.10;;;2.80;99.90;;;;;;5094837;28;20226;-76
2022/12/04 10:10:07;;;;;;;32.90;22.23;;;2.80;99.90;;;;;;5090824;28;20219;-78
2022/12/04 10:12:47;;;;;;;36.70;22.63;;;2.80;99.90;;;;;;5089997;28;20563;-80
2022/12/04 10:15:29;;;;;;;35.03;22.70;;;2.70;99.90;;;;;;5094540;28;20190;-79
2022/12/04 10:18:20;;;;;;;35.30;23.87;;;2.70;99.90;;;;;;5107326;28;20271;-78
2022/12/04 10:21:17;;;;;;;33.30;22.07;;;2.80;99.90;;;;;;5090871;28;20233;-78
2022/12/04 10:23:55;;;;;;;36.00;23.73;;;2.70;99.90;;;;;;5088416;28;20209;-76
2022/12/04 10:26:28;;;;;;;40.57;25.63;;;2.80;99.90;;;;;;5089841;28;20209;-79
2022/12/04 10:29:00;;;;;;;30.73;20.97;;;2.90;99.90;;;;;;5091675;28;20215;-75
2022/12/04 10:31:30;;;;;;;29.23;19.93;;;2.80;99.90;;;;;;5092820;28;20576;-77
2022/12/04 10:34:03;;;;;;;29.80;21.70;;;2.80;99.90;;;;;;5094884;28;20269;-79
2022/12/04 10:36:35;;;;;;;32.23;22.13;;;2.90;99.90;;;;;;5095737;28;20205;-79
2022/12/04 10:39:09;;;;;;;77.60;41.50;;;2.90;99.90;;;;;;5096389;28;20220;-76
2022/12/04 10:41:43;;;;;;;468.27;207.47;;;3.00;99.90;;;;;;5080649;28;20215;-77
2022/12/04 10:44:14;;;;;;;29.80;21.50;;;3.00;99.90;;;;;;5090097;28;20191;-80
2022/12/04 10:46:44;;;;;;;27.70;18.67;;;2.90;99.90;;;;;;5092325;28;20638;-78
2022/12/04 10:49:17;;;;;;;25.70;18.13;;;3.00;99.90;;;;;;5093981;28;20234;-77
2022/12/04 10:51:47;;;;;;;24.23;18.17;;;3.00;99.90;;;;;;5093383;28;20291;-79
2022/12/04 10:54:21;;;;;;;20.87;16.30;;;3.10;99.90;;;;;;5093616;28;20218;-78
2022/12/04 10:56:54;;;;;;;27.27;19.20;;;3.10;99.90;;;;;;5091501;28;20214;-78
2022/12/04 10:59:23;;;;;;;22.77;16.93;;;3.20;99.90;;;;;;5076772;28;20211;-78
2022/12/04 11:02:02;;;;;;;24.33;18.47;;;3.20;99.90;;;;;;5093501;28;20213;-78
2022/12/04 11:04:35;;;;;;;22.33;16.70;;;3.20;99.90;;;;;;5091905;28;20211;-79
2022/12/04 11:07:05;;;;;;;20.10;15.97;;;3.30;99.90;;;;;;5091760;28;20317;-79
2022/12/04 11:09:35;;;;;;;22.27;16.87;;;3.20;99.90;;;;;;5090752;28;20505;-78
2022/12/04 11:12:09;;;;;;;23.93;16.80;;;3.10;99.90;;;;;;5092829;28;20653;-78
2022/12/04 11:14:37;;;;;;;23.83;17.63;;;3.10;99.90;;;;;;5093262;28;20274;-79
2022/12/04 11:17:18;;;;;;;24.80;17.87;;;3.20;99.90;;;;;;5092199;28;20722;-80
2022/12/04 11:19:46;;;;;;;23.33;17.87;;;3.10;99.90;;;;;;5093527;28;20187;-79
2022/12/04 11:22:17;;;;;;;22.60;17.23;;;3.10;99.90;;;;;;5093082;28;20206;-79
2022/12/04 11:24:53;;;;;;;23.50;18.13;;;3.20;99.90;;;;;;5092942;28;20231;-76
2022/12/04 11:27:25;;;;;;;21.60;17.47;;;3.20;99.90;;;;;;5080263;28;20207;-76
2022/12/04 11:29:55;;;;;;;24.97;18.27;;;3.20;99.90;;;;;;5089661;28;20206;-77
2022/12/04 11:32:27;;;;;;;23.53;18.13;;;3.20;99.90;;;;;;5077986;28;20234;-76
2022/12/04 11:34:59;;;;;;;24.77;18.17;;;3.20;99.90;;;;;;5073719;28;20531;-78
2022/12/04 11:37:32;;;;;;;26.33;18.67;;;3.20;99.90;;;;;;5092416;28;20572;-77
2022/12/04 11:40:01;;;;;;;26.33;18.67;;;3.20;99.90;;;;;;5093040;28;20221;-76
2022/12/04 11:42:33;;;;;;;28.47;20.50;;;3.20;99.90;;;;;;5093037;28;20241;-79
2022/12/04 11:45:02;;;;;;;28.20;19.97;;;3.20;99.90;;;;;;5091798;28;20642;-78
2022/12/04 11:47:37;;;;;;;27.47;20.67;;;3.30;99.90;;;;;;5077653;28;20234;-77
2022/12/04 11:50:18;;;;;;;27.07;19.53;;;3.30;99.90;;;;;;5092412;28;20237;-79
2022/12/04 11:52:57;;;;;;;25.90;19.13;;;3.20;99.90;;;;;;5091931;28;20247;-78
2022/12/04 11:55:32;;;;;;;28.07;19.67;;;3.20;99.90;;;;;;5091432;28;20206;-76
2022/12/04 11:58:30;;;;;;;25.53;18.70;;;3.20;99.90;;;;;;5092430;28;20213;-75
2022/12/04 12:01:11;;;;;;;26.13;19.80;;;3.10;99.90;;;;;;5093098;28;20340;-75
2022/12/04 12:03:50;;;;;;;27.40;20.13;;;3.20;99.90;;;;;;5092842;28;20197;-80
2022/12/04 12:06:30;;;;;;;26.50;19.17;;;3.20;99.90;;;;;;5092986;28;20648;-78
2022/12/04 12:09:10;;;;;;;28.90;20.63;;;3.20;99.90;;;;;;5090109;28;20214;-75
2022/12/04 12:11:43;;;;;;;28.20;21.83;;;3.20;99.90;;;;;;5092966;28;20210;-80
2022/12/04 12:14:18;;;;;;;30.97;21.33;;;3.10;99.90;;;;;;5092459;28;20563;-77
2022/12/04 12:16:56;;;;;;;26.50;19.90;;;3.20;99.90;;;;;;5091612;28;20233;-78
2022/12/04 12:20:08;;;;;;;29.23;21.27;;;3.30;99.90;;;;;;5092525;28;20203;-79
2022/12/04 12:23:13;;;;;;;29.70;21.37;;;3.30;99.90;;;;;;5077043;28;20688;-79
2022/12/04 12:25:50;;;;;;;29.30;20.83;;;3.20;99.90;;;;;;5091308;28;20701;-79
2022/12/04 12:28:38;;;;;;;29.43;21.23;;;3.20;99.90;;;;;;5092971;28;20537;-78
2022/12/04 12:31:21;;;;;;;28.83;21.27;;;3.20;99.90;;;;;;5092160;28;20516;-79
2022/12/04 12:33:54;;;;;;;29.80;21.70;;;3.20;99.90;;;;;;5092477;28;20218;-79
2022/12/04 12:36:24;;;;;;;34.17;21.73;;;3.30;99.90;;;;;;5091103;28;20221;-79
2022/12/04 12:38:57;;;;;;;33.13;22.63;;;3.20;99.90;;;;;;5092475;28;20578;-77
2022/12/04 12:41:31;;;;;;;30.37;21.97;;;3.10;99.90;;;;;;5092805;28;20229;-79
2022/12/04 12:44:07;;;;;;;33.73;22.70;;;3.20;99.90;;;;;;5096064;28;20293;-78
2022/12/04 12:46:47;;;;;;;36.77;24.17;;;3.20;99.90;;;;;;5092779;28;20226;-79
2022/12/04 12:49:21;;;;;;;37.60;24.83;;;3.10;99.90;;;;;;5091844;28;20228;-77
2022/12/04 12:51:55;;;;;;;46.60;29.33;;;3.10;99.90;;;;;;5093696;28;20673;-78
2022/12/04 12:54:31;;;;;;;36.43;25.43;;;3.20;99.90;;;;;;5092514;28;20657;-79
2022/12/04 12:57:05;;;;;;;34.87;23.80;;;3.20;99.90;;;;;;5093286;28;20195;-77
2022/12/04 12:59:34;;;;;;;35.07;24.00;;;3.20;99.90;;;;;;5093760;28;20277;-77
2022/12/04 13:02:11;;;;;;;34.43;24.63;;;3.20;99.90;;;;;;5093878;28;20241;-78
2022/12/04 13:04:42;;;;;;;32.50;22.67;;;3.20;99.90;;;;;;5097575;28;20190;-79
2022/12/04 13:07:25;;;;;;;34.97;23.60;;;3.10;99.90;;;;;;5092032;28;20302;-78
2022/12/04 13:10:02;;;;;;;36.27;23.23;;;3.10;99.90;;;;;;5093227;28;20215;-80